Time;durP1;ratioP1;P1;durP2;ratioP2;P2;SDS_P1;SDS_P2;PMS_P1;PMS_P2;Temp;Humidity;BMP_temperature;BMP_pressure;BME280_temperature;BME280_humidity;BME280_pressure;Samples;Min_cycle;Max_cycle;Signal;HPM_P1;HPM_P2
2021/06/29 00:01:51;;;;;;;3.92;1.50;;;;;;;;;;6077408;29;20056;-71
2021/06/29 00:04:53;;;;;;;3.78;1.58;;;;;;;;;;6079767;29;20134;-73
2021/06/29 00:08:02;;;;;;;3.72;1.48;;;;;;;;;;6069819;29;21427;-72
2021/06/29 00:11:04;;;;;;;3.85;1.75;;;;;;;;;;6076493;29;21231;-72
2021/06/29 00:14:06;;;;;;;2.88;1.48;;;;;;;;;;6080597;29;20560;-72
2021/06/29 00:17:13;;;;;;;2.55;1.50;;;;;;;;;;6084072;29;20052;-74
2021/06/29 00:20:16;;;;;;;5.32;1.50;;;;;;;;;;6084930;29;20484;-71
2021/06/29 00:23:17;;;;;;;3.22;1.13;;;;;;;;;;6080385;29;20103;-74
2021/06/29 00:26:19;;;;;;;3.83;1.75;;;;;;;;;;6077573;29;20603;-74
2021/06/29 00:29:20;;;;;;;5.30;1.40;;;;;;;;;;6081687;29;20785;-71
2021/06/29 00:32:23;;;;;;;4.28;1.65;;;;;;;;;;6085475;29;20127;-71
2021/06/29 00:35:25;;;;;;;3.03;1.27;;;;;;;;;;6086288;29;20095;-72
2021/06/29 00:38:27;;;;;;;2.42;1.20;;;;;;;;;;6093223;29;20052;-72
2021/06/29 00:41:29;;;;;;;3.13;1.33;;;;;;;;;;6088524;29;20059;-73
2021/06/29 00:44:30;;;;;;;8.60;1.73;;;;;;;;;;6090565;29;20056;-71
2021/06/29 00:47:33;;;;;;;5.78;1.70;;;;;;;;;;6091768;29;20048;-75
2021/06/29 00:50:35;;;;;;;7.75;1.67;;;;;;;;;;6091258;29;20127;-71
2021/06/29 00:53:37;;;;;;;8.57;1.83;;;;;;;;;;6087568;29;20197;-72
2021/06/29 00:56:39;;;;;;;7.60;1.52;;;;;;;;;;6084490;29;20139;-72
2021/06/29 00:59:41;;;;;;;4.65;1.50;;;;;;;;;;6081817;29;20407;-74
2021/06/29 01:02:44;;;;;;;4.37;1.67;;;;;;;;;;6082187;29;20199;-71
2021/06/29 01:05:46;;;;;;;7.50;1.60;;;;;;;;;;6087228;29;20575;-72
2021/06/29 01:08:48;;;;;;;4.10;1.40;;;;;;;;;;6084533;29;20119;-71
2021/06/29 01:11:50;;;;;;;6.13;1.83;;;;;;;;;;6090469;29;20051;-74
2021/06/29 01:14:51;;;;;;;4.25;1.25;;;;;;;;;;6085857;29;20059;-75
2021/06/29 01:17:57;;;;;;;7.55;1.45;;;;;;;;;;6087483;29;20271;-70
2021/06/29 01:21:00;;;;;;;6.07;1.40;;;;;;;;;;6084040;29;20070;-71
2021/06/29 01:24:03;;;;;;;10.85;1.83;;;;;;;;;;6086969;29;20110;-71
2021/06/29 01:27:21;;;;;;;3.65;1.40;;;;;;;;;;6090556;29;20061;-70
2021/06/29 01:33:42;;;;;;;7.50;1.60;;;;;;;;;;6089786;29;20146;-73
2021/06/29 01:36:45;;;;;;;3.45;1.83;;;;;;;;;;6089634;29;20065;-71
2021/06/29 01:39:56;;;;;;;3.83;1.70;;;;;;;;;;6081745;29;20199;-71
2021/06/29 01:42:59;;;;;;;5.32;1.48;;;;;;;;;;6086863;29;20048;-71
2021/06/29 01:46:01;;;;;;;6.68;1.90;;;;;;;;;;6089346;29;20059;-72
2021/06/29 01:49:02;;;;;;;3.67;1.65;;;;;;;;;;6085265;29;20139;-73
2021/06/29 01:52:06;;;;;;;5.90;1.67;;;;;;;;;;6084008;29;20192;-72
2021/06/29 01:55:09;;;;;;;6.80;2.10;;;;;;;;;;6090506;29;20204;-72
2021/06/29 01:58:11;;;;;;;4.30;1.42;;;;;;;;;;6088600;29;20489;-72
2021/06/29 02:01:12;;;;;;;3.22;1.58;;;;;;;;;;6082285;29;20168;-72
2021/06/29 02:04:14;;;;;;;8.32;1.80;;;;;;;;;;6092312;29;20052;-71
2021/06/29 02:07:17;;;;;;;3.35;1.45;;;;;;;;;;6084391;29;20081;-71
2021/06/29 02:10:19;;;;;;;6.20;1.88;;;;;;;;;;6086814;29;20156;-72
2021/06/29 02:13:20;;;;;;;10.05;1.70;;;;;;;;;;6089833;29;20051;-73
2021/06/29 02:16:22;;;;;;;5.00;2.10;;;;;;;;;;6090931;29;20095;-73
2021/06/29 02:19:23;;;;;;;5.22;2.25;;;;;;;;;;6091011;29;20172;-71
2021/06/29 02:22:26;;;;;;;6.70;1.88;;;;;;;;;;6096458;29;20075;-72
2021/06/29 02:25:28;;;;;;;4.25;1.88;;;;;;;;;;6098767;29;20694;-72
2021/06/29 02:28:30;;;;;;;4.25;2.00;;;;;;;;;;6091362;29;20396;-73
2021/06/29 02:31:31;;;;;;;5.38;2.03;;;;;;;;;;6090621;29;20151;-72
2021/06/29 02:34:33;;;;;;;5.07;1.70;;;;;;;;;;6091574;29;20390;-72
2021/06/29 02:37:36;;;;;;;5.07;2.20;;;;;;;;;;6087152;29;20467;-71
2021/06/29 02:40:37;;;;;;;4.93;1.85;;;;;;;;;;6085421;29;20624;-72
2021/06/29 02:43:40;;;;;;;5.82;2.08;;;;;;;;;;6095276;29;20631;-71
2021/06/29 02:46:42;;;;;;;5.75;1.90;;;;;;;;;;6088787;29;20142;-71
2021/06/29 02:49:44;;;;;;;6.18;2.05;;;;;;;;;;6090085;29;20142;-72
2021/06/29 02:52:47;;;;;;;4.85;1.98;;;;;;;;;;6085446;29;20188;-71
2021/06/29 02:55:48;;;;;;;;;;;;;;;;;;6096686;29;20098;-71
2021/06/29 02:58:50;;;;;;;5.05;2.05;;;;;;;;;;6096790;29;19927;-71
2021/06/29 03:01:51;;;;;;;5.80;1.92;;;;;;;;;;6095507;29;20142;-72
2021/06/29 03:04:53;;;;;;;1.88;1.48;;;;;;;;;;6090252;29;20135;-73
2021/06/29 03:07:56;;;;;;;3.63;2.00;;;;;;;;;;6095028;29;20072;-71
2021/06/29 03:10:58;;;;;;;6.03;1.90;;;;;;;;;;6089520;29;20576;-73
2021/06/29 03:14:00;;;;;;;2.85;1.83;;;;;;;;;;6092990;29;20047;-71
2021/06/29 03:17:02;;;;;;;8.07;1.90;;;;;;;;;;6085700;29;20191;-71
2021/06/29 03:20:04;;;;;;;5.30;2.10;;;;;;;;;;6087374;29;20044;-71
2021/06/29 03:23:07;;;;;;;5.68;2.45;;;;;;;;;;6091997;29;20091;-71
2021/06/29 03:26:09;;;;;;;5.15;2.45;;;;;;;;;;6088951;29;20036;-77
2021/06/29 03:29:10;;;;;;;4.63;2.33;;;;;;;;;;6089853;29;20135;-71
2021/06/29 03:32:13;;;;;;;4.97;2.45;;;;;;;;;;6090520;29;20036;-71
2021/06/29 03:35:17;;;;;;;4.90;2.10;;;;;;;;;;6091657;29;20056;-74
2021/06/29 03:38:23;;;;;;;;;;;;;;;;;;6094030;29;20064;-71
2021/06/29 03:41:24;;;;;;;7.45;2.28;;;;;;;;;;6092151;29;19927;-71
2021/06/29 03:44:26;;;;;;;5.47;2.10;;;;;;;;;;6090459;29;20051;-71
2021/06/29 03:47:28;;;;;;;5.53;2.10;;;;;;;;;;6094309;29;20625;-71
2021/06/29 03:50:29;;;;;;;5.93;1.90;;;;;;;;;;6093506;29;20505;-71
2021/06/29 03:53:32;;;;;;;4.53;2.08;;;;;;;;;;6093522;29;20177;-71
2021/06/29 03:56:34;;;;;;;4.93;2.20;;;;;;;;;;6084586;29;20056;-70
2021/06/29 03:59:36;;;;;;;4.93;2.05;;;;;;;;;;6089880;29;20053;-71
2021/06/29 04:02:38;;;;;;;13.00;2.70;;;;;;;;;;6097442;29;20432;-71
2021/06/29 04:05:39;;;;;;;6.85;2.83;;;;;;;;;;6083827;29;20136;-74
2021/06/29 04:08:42;;;;;;;6.45;2.80;;;;;;;;;;6088069;29;20123;-72
2021/06/29 04:11:44;;;;;;;7.00;2.80;;;;;;;;;;6093929;29;20048;-72
2021/06/29 04:14:45;;;;;;;6.43;2.15;;;;;;;;;;6093822;29;20091;-72
2021/06/29 04:17:47;;;;;;;7.50;2.70;;;;;;;;;;6095065;29;20115;-72
2021/06/29 04:20:49;;;;;;;4.47;2.47;;;;;;;;;;6097915;29;20460;-71
2021/06/29 04:23:51;;;;;;;4.60;2.40;;;;;;;;;;6084410;29;20126;-71
2021/06/29 04:26:53;;;;;;;5.68;2.70;;;;;;;;;;6096785;29;20155;-71
2021/06/29 04:29:55;;;;;;;5.18;2.55;;;;;;;;;;6092365;29;20139;-73
2021/06/29 04:32:56;;;;;;;4.05;2.50;;;;;;;;;;6087334;29;20151;-73
2021/06/29 04:35:58;;;;;;;9.88;2.78;;;;;;;;;;6085212;29;20091;-73
2021/06/29 04:39:01;;;;;;;5.57;2.40;;;;;;;;;;6088002;29;20052;-73
2021/06/29 04:42:03;;;;;;;8.57;2.20;;;;;;;;;;6090441;29;20559;-74
2021/06/29 04:45:05;;;;;;;8.15;2.83;;;;;;;;;;6096871;29;20251;-74
2021/06/29 04:48:08;;;;;;;6.35;2.78;;;;;;;;;;6090923;29;20595;-74
2021/06/29 04:51:09;;;;;;;10.80;2.50;;;;;;;;;;6082356;29;20056;-68
2021/06/29 04:54:12;;;;;;;8.60;2.63;;;;;;;;;;6091021;29;20056;-70
2021/06/29 04:57:14;;;;;;;8.38;2.90;;;;;;;;;;6084244;29;20084;-69
2021/06/29 05:00:18;;;;;;;6.35;3.30;;;;;;;;;;6086874;29;20201;-68
2021/06/29 05:03:20;;;;;;;7.53;3.80;;;;;;;;;;6090972;29;20409;-68
2021/06/29 05:06:21;;;;;;;7.82;2.70;;;;;;;;;;6085470;29;20059;-69
2021/06/29 05:09:24;;;;;;;5.72;2.83;;;;;;;;;;6093166;29;20964;-69
2021/06/29 05:12:26;;;;;;;10.27;4.03;;;;;;;;;;6090771;29;20060;-68
2021/06/29 05:15:27;;;;;;;7.53;2.92;;;;;;;;;;6086336;29;20048;-68
2021/06/29 05:18:29;;;;;;;6.82;3.25;;;;;;;;;;6088792;29;20048;-71
2021/06/29 05:21:30;;;;;;;9.25;3.45;;;;;;;;;;6087706;29;20100;-69
2021/06/29 05:24:33;;;;;;;5.20;3.40;;;;;;;;;;6086789;29;20183;-71
2021/06/29 05:27:37;;;;;;;5.72;3.45;;;;;;;;;;6087698;29;20052;-70
2021/06/29 05:30:39;;;;;;;7.38;3.42;;;;;;;;;;6090373;29;20163;-71
2021/06/29 05:33:41;;;;;;;4.80;3.30;;;;;;;;;;6093148;29;20132;-71
2021/06/29 05:36:43;;;;;;;7.65;3.60;;;;;;;;;;6093246;29;20055;-70
2021/06/29 05:39:46;;;;;;;6.45;3.88;;;;;;;;;;6083138;29;20468;-68
2021/06/29 05:42:47;;;;;;;5.40;3.92;;;;;;;;;;6096781;29;20135;-68
2021/06/29 05:45:49;;;;;;;5.95;3.35;;;;;;;;;;6085905;29;20090;-71
2021/06/29 05:48:52;;;;;;;13.20;4.03;;;;;;;;;;6082225;29;20056;-70
2021/06/29 05:51:53;;;;;;;4.72;3.50;;;;;;;;;;6091413;29;20661;-73
2021/06/29 05:54:57;;;;;;;5.53;3.45;;;;;;;;;;6095670;29;20174;-68
2021/06/29 05:57:58;;;;;;;9.73;3.70;;;;;;;;;;6093394;29;20044;-69
2021/06/29 06:01:07;;;;;;;7.50;3.72;;;;;;;;;;6078407;29;20052;-69
2021/06/29 06:04:08;;;;;;;6.60;3.80;;;;;;;;;;6082907;29;20077;-70
2021/06/29 06:07:10;;;;;;;6.32;3.95;;;;;;;;;;6090791;29;20400;-71
2021/06/29 06:10:14;;;;;;;7.50;3.30;;;;;;;;;;6088098;29;20052;-69
2021/06/29 06:13:16;;;;;;;6.25;3.20;;;;;;;;;;6087318;29;20052;-68
2021/06/29 06:16:18;;;;;;;9.02;3.45;;;;;;;;;;6091495;29;20222;-71
2021/06/29 06:19:19;;;;;;;12.43;3.63;;;;;;;;;;6092446;29;20630;-71
2021/06/29 06:22:21;;;;;;;8.40;4.70;;;;;;;;;;6095811;29;20187;-70
2021/06/29 06:25:25;;;;;;;9.95;4.10;;;;;;;;;;6091244;29;20087;-72
2021/06/29 06:28:26;;;;;;;5.22;3.58;;;;;;;;;;6089785;29;20056;-72
2021/06/29 06:31:28;;;;;;;5.93;3.75;;;;;;;;;;6084517;29;20544;-72
2021/06/29 06:34:29;;;;;;;8.93;4.03;;;;;;;;;;6088674;29;20056;-72
2021/06/29 06:37:31;;;;;;;9.77;3.83;;;;;;;;;;6098039;29;20052;-72
2021/06/29 06:40:34;;;;;;;6.63;3.53;;;;;;;;;;6087547;29;20575;-72
2021/06/29 06:43:35;;;;;;;6.63;3.35;;;;;;;;;;6088245;29;20259;-75
2021/06/29 06:46:37;;;;;;;6.10;2.75;;;;;;;;;;6093853;29;20051;-74
2021/06/29 06:49:39;;;;;;;10.02;3.83;;;;;;;;;;6090912;29;20199;-73
2021/06/29 06:52:41;;;;;;;6.37;3.10;;;;;;;;;;6089922;29;20072;-73
2021/06/29 06:55:44;;;;;;;5.95;2.60;;;;;;;;;;6086024;29;20166;-73
2021/06/29 06:58:46;;;;;;;8.05;2.95;;;;;;;;;;6091673;29;20112;-75
2021/06/29 07:01:48;;;;;;;6.10;3.70;;;;;;;;;;6094009;29;20138;-74
2021/06/29 07:04:50;;;;;;;7.78;3.00;;;;;;;;;;6087467;29;20048;-72
2021/06/29 07:07:51;;;;;;;7.47;3.20;;;;;;;;;;6093524;29;20497;-72
2021/06/29 07:10:56;;;;;;;6.20;2.47;;;;;;;;;;6100956;29;20444;-72
2021/06/29 07:13:57;;;;;;;5.22;2.10;;;;;;;;;;6098477;29;20043;-72
2021/06/29 07:16:59;;;;;;;12.20;2.60;;;;;;;;;;6087722;29;20134;-72
2021/06/29 07:20:00;;;;;;;6.07;2.70;;;;;;;;;;6097077;29;20633;-72
2021/06/29 07:23:02;;;;;;;9.50;2.40;;;;;;;;;;6107729;29;20521;-72
2021/06/29 07:26:05;;;;;;;10.50;2.47;;;;;;;;;;6099177;29;20559;-73
2021/06/29 07:29:07;;;;;;;4.68;2.10;;;;;;;;;;6096543;29;20115;-72
2021/06/29 07:32:09;;;;;;;7.90;2.35;;;;;;;;;;6102891;29;20131;-72
2021/06/29 07:35:11;;;;;;;10.60;2.60;;;;;;;;;;6103349;29;20458;-74
2021/06/29 07:38:13;;;;;;;8.80;3.20;;;;;;;;;;6093364;29;20172;-72
2021/06/29 07:41:17;;;;;;;7.75;2.40;;;;;;;;;;6099110;29;20057;-76
2021/06/29 07:44:19;;;;;;;5.38;2.80;;;;;;;;;;6095378;29;20681;-72
2021/06/29 07:47:20;;;;;;;6.60;3.08;;;;;;;;;;6097034;29;20139;-76
2021/06/29 07:50:22;;;;;;;6.15;2.60;;;;;;;;;;6086908;29;20088;-74
2021/06/29 07:53:24;;;;;;;9.77;2.58;;;;;;;;;;6107697;29;20080;-74
2021/06/29 07:56:28;;;;;;;5.78;2.03;;;;;;;;;;6102614;29;20043;-72
2021/06/29 07:59:30;;;;;;;4.03;2.05;;;;;;;;;;6098363;29;20563;-74
2021/06/29 08:02:31;;;;;;;4.50;2.00;;;;;;;;;;6108203;29;20143;-72
2021/06/29 08:05:33;;;;;;;5.72;2.40;;;;;;;;;;6094235;29;20099;-73
2021/06/29 08:08:35;;;;;;;8.13;1.90;;;;;;;;;;6095102;29;20139;-73
2021/06/29 08:11:38;;;;;;;4.03;1.83;;;;;;;;;;6094278;29;20145;-72
2021/06/29 08:14:40;;;;;;;5.90;2.33;;;;;;;;;;6109640;29;20146;-80
2021/06/29 08:17:42;;;;;;;3.83;1.80;;;;;;;;;;6103540;29;20056;-73
2021/06/29 08:20:44;;;;;;;9.50;2.05;;;;;;;;;;6098851;29;20059;-73
2021/06/29 08:23:45;;;;;;;5.83;2.60;;;;;;;;;;6094946;29;20040;-78
2021/06/29 08:26:48;;;;;;;3.95;1.80;;;;;;;;;;6086971;29;20190;-74
2021/06/29 08:29:52;;;;;;;4.97;2.20;;;;;;;;;;6103485;29;20052;-73
2021/06/29 08:32:54;;;;;;;5.22;1.85;;;;;;;;;;6096352;29;20055;-77
2021/06/29 08:35:57;;;;;;;5.77;1.70;;;;;;;;;;6100872;29;20643;-73
2021/06/29 08:38:59;;;;;;;6.78;2.20;;;;;;;;;;6097872;29;20136;-73
2021/06/29 08:42:03;;;;;;;4.82;1.58;;;;;;;;;;6093741;29;20088;-76
2021/06/29 08:45:07;;;;;;;3.67;1.58;;;;;;;;;;6101317;29;20080;-73
2021/06/29 08:48:09;;;;;;;4.57;1.70;;;;;;;;;;6095608;29;20254;-78
2021/06/29 08:51:11;;;;;;;3.88;1.60;;;;;;;;;;6096180;29;20055;-79
2021/06/29 08:54:15;;;;;;;3.80;1.57;;;;;;;;;;6097161;29;20571;-74
2021/06/29 08:57:18;;;;;;;5.85;1.92;;;;;;;;;;6076672;29;20060;-73
2021/06/29 09:00:20;;;;;;;8.38;2.35;;;;;;;;;;6093813;29;20048;-75
2021/06/29 09:03:22;;;;;;;8.05;2.40;;;;;;;;;;6102309;29;20150;-73
2021/06/29 09:06:31;;;;;;;6.78;1.83;;;;;;;;;;6099522;29;20052;-73
2021/06/29 09:09:34;;;;;;;7.38;2.00;;;;;;;;;;6091763;29;20266;-74
2021/06/29 09:12:48;;;;;;;2.25;1.55;;;;;;;;;;6093904;29;20047;-73
2021/06/29 09:15:49;;;;;;;7.40;2.20;;;;;;;;;;6097965;29;20072;-71
2021/06/29 09:18:51;;;;;;;4.10;1.67;;;;;;;;;;6094845;29;20139;-71
2021/06/29 09:21:52;;;;;;;5.07;2.10;;;;;;;;;;6095516;29;20056;-72
2021/06/29 09:24:54;;;;;;;6.72;2.40;;;;;;;;;;6098436;29;20056;-74
2021/06/29 09:27:58;;;;;;;5.95;1.85;;;;;;;;;;6098875;29;20047;-73
2021/06/29 09:31:01;;;;;;;5.93;2.20;;;;;;;;;;6094714;29;20071;-73
2021/06/29 09:34:04;;;;;;;7.63;1.90;;;;;;;;;;6097003;29;20052;-72
2021/06/29 09:37:26;;;;;;;6.22;2.00;;;;;;;;;;6096609;29;20138;-72
2021/06/29 09:40:30;;;;;;;4.70;1.80;;;;;;;;;;6080557;29;20055;-74
2021/06/29 09:43:35;;;;;;;8.05;2.53;;;;;;;;;;6093301;29;20122;-74
2021/06/29 09:46:37;;;;;;;5.47;2.45;;;;;;;;;;6093950;29;20520;-72
2021/06/29 09:49:41;;;;;;;6.88;2.55;;;;;;;;;;6093445;29;20052;-73
2021/06/29 09:52:42;;;;;;;6.85;2.65;;;;;;;;;;6091697;29;20059;-76
2021/06/29 09:55:46;;;;;;;7.47;2.90;;;;;;;;;;6085810;29;20512;-73
2021/06/29 09:58:51;;;;;;;5.80;2.90;;;;;;;;;;6094251;29;20044;-74
2021/06/29 10:02:04;;;;;;;4.15;2.60;;;;;;;;;;6090116;29;20527;-74
2021/06/29 10:05:21;;;;;;;5.00;2.70;;;;;;;;;;6095389;29;20218;-76
2021/06/29 10:08:26;;;;;;;6.28;2.95;;;;;;;;;;6094649;29;20413;-73
2021/06/29 10:11:31;;;;;;;8.02;2.70;;;;;;;;;;6100958;29;20064;-73
2021/06/29 10:14:35;;;;;;;17.13;3.30;;;;;;;;;;6089287;29;20056;-73
2021/06/29 10:17:38;;;;;;;6.18;3.05;;;;;;;;;;6095843;29;20048;-73
2021/06/29 10:20:50;;;;;;;16.98;3.40;;;;;;;;;;6089500;29;20056;-71
2021/06/29 10:23:53;;;;;;;5.13;2.53;;;;;;;;;;6098802;29;23487;-71
2021/06/29 10:26:57;;;;;;;4.88;2.72;;;;;;;;;;6088810;29;20410;-73
2021/06/29 10:30:00;;;;;;;10.68;2.83;;;;;;;;;;6090193;29;20064;-75
2021/06/29 10:33:03;;;;;;;5.78;2.85;;;;;;;;;;6091374;29;20151;-76
2021/06/29 10:36:06;;;;;;;9.55;2.72;;;;;;;;;;6091689;29;20044;-79
2021/06/29 10:39:09;;;;;;;5.07;2.40;;;;;;;;;;6099712;29;20063;-71
2021/06/29 10:42:14;;;;;;;6.93;2.55;;;;;;;;;;6100056;29;20061;-73
2021/06/29 10:45:17;;;;;;;5.80;2.58;;;;;;;;;;6093631;29;20176;-75
2021/06/29 10:48:21;;;;;;;6.13;2.78;;;;;;;;;;6098009;29;21205;-72
2021/06/29 10:51:36;;;;;;;10.18;2.63;;;;;;;;;;6097929;29;20135;-74
2021/06/29 10:54:47;;;;;;;4.65;2.38;;;;;;;;;;6099877;29;20070;-73
2021/06/29 10:57:50;;;;;;;7.30;2.40;;;;;;;;;;6104461;29;20048;-73
2021/06/29 11:00:54;;;;;;;11.40;2.53;;;;;;;;;;6101481;29;20139;-76
2021/06/29 11:03:57;;;;;;;4.65;2.28;;;;;;;;;;6104869;29;20056;-76
2021/06/29 11:06:59;;;;;;;4.95;2.00;;;;;;;;;;6098262;29;20060;-73
2021/06/29 11:10:03;;;;;;;3.65;2.22;;;;;;;;;;6095425;29;20617;-74
2021/06/29 11:13:06;;;;;;;4.38;2.38;;;;;;;;;;6095853;29;20173;-75
2021/06/29 11:16:09;;;;;;;4.00;2.30;;;;;;;;;;6093962;29;20721;-74
2021/06/29 11:19:10;;;;;;;3.72;2.00;;;;;;;;;;6094832;29;20625;-74
2021/06/29 11:22:45;;;;;;;4.40;2.47;;;;;;;;;;6093865;29;20045;-73
2021/06/29 11:25:50;;;;;;;2.47;1.55;;;;;;;;;;6095764;29;20600;-75
2021/06/29 11:28:57;;;;;;;4.50;1.88;;;;;;;;;;6091431;29;20048;-78
2021/06/29 11:32:25;;;;;;;40.88;33.25;;;;;;;;;;6088385;29;20095;-71
2021/06/29 11:35:40;;;;;;;58.88;40.13;;;;;;;;;;6096220;29;20873;-72
2021/06/29 11:38:43;;;;;;;52.80;38.85;;;;;;;;;;6095914;29;20147;-73
2021/06/29 11:41:51;;;;;;;26.70;17.10;;;;;;;;;;6091466;29;20096;-74
2021/06/29 11:44:54;;;;;;;42.55;28.70;;;;;;;;;;6090897;29;20052;-74
2021/06/29 11:47:58;;;;;;;13.82;8.75;;;;;;;;;;6091888;29;20493;-73
2021/06/29 11:51:00;;;;;;;7.75;1.90;;;;;;;;;;6092052;29;20059;-74
2021/06/29 11:54:01;;;;;;;7.30;4.87;;;;;;;;;;6089520;29;20139;-73
2021/06/29 11:57:14;;;;;;;4.37;1.70;;;;;;;;;;6081347;29;20044;-73
2021/06/29 12:00:19;;;;;;;5.53;1.90;;;;;;;;;;6089915;29;20933;-74
2021/06/29 12:03:22;;;;;;;6.35;2.03;;;;;;;;;;6092802;29;20168;-74
2021/06/29 12:06:23;;;;;;;5.63;2.13;;;;;;;;;;6095317;29;20095;-74
2021/06/29 12:09:30;;;;;;;7.22;2.30;;;;;;;;;;6082330;29;20104;-76
2021/06/29 12:12:32;;;;;;;6.82;2.08;;;;;;;;;;6096166;29;20052;-76
2021/06/29 12:15:35;;;;;;;5.97;2.00;;;;;;;;;;6090876;29;20131;-74
2021/06/29 12:18:48;;;;;;;7.40;2.10;;;;;;;;;;6092388;29;20048;-73
2021/06/29 12:21:49;;;;;;;3.80;2.40;;;;;;;;;;6091495;29;20062;-75
2021/06/29 12:24:51;;;;;;;7.25;2.15;;;;;;;;;;6096562;29;20139;-74
2021/06/29 12:27:56;;;;;;;4.15;2.10;;;;;;;;;;6095910;29;20127;-75
2021/06/29 12:30:58;;;;;;;10.07;1.80;;;;;;;;;;6091632;29;20063;-75
2021/06/29 12:34:02;;;;;;;4.25;1.80;;;;;;;;;;6087763;29;20174;-73
2021/06/29 12:37:05;;;;;;;5.57;2.00;;;;;;;;;;6086526;29;20393;-74
2021/06/29 12:40:07;;;;;;;4.45;2.00;;;;;;;;;;6094003;29;20496;-72
2021/06/29 12:43:23;;;;;;;7.80;2.38;;;;;;;;;;6092052;29;20512;-74
2021/06/29 12:46:27;;;;;;;6.95;1.90;;;;;;;;;;6090518;29;20044;-71
2021/06/29 12:49:29;;;;;;;7.00;2.08;;;;;;;;;;6088348;29;20386;-73
2021/06/29 12:52:31;;;;;;;5.40;2.00;;;;;;;;;;6085219;29;20584;-73
2021/06/29 12:55:33;;;;;;;6.32;2.05;;;;;;;;;;6095888;29;20131;-76
2021/06/29 12:58:35;;;;;;;5.00;2.35;;;;;;;;;;6092243;29;20107;-72
2021/06/29 13:01:39;;;;;;;6.65;1.98;;;;;;;;;;6096980;29;20224;-72
2021/06/29 13:04:45;;;;;;;7.32;2.10;;;;;;;;;;6090541;29;20149;-76
2021/06/29 13:07:46;;;;;;;5.55;1.80;;;;;;;;;;6086175;29;20052;-73
2021/06/29 13:10:48;;;;;;;7.90;2.10;;;;;;;;;;6082454;29;20107;-74
2021/06/29 13:13:57;;;;;;;6.85;2.10;;;;;;;;;;6090340;29;20183;-75
2021/06/29 13:17:00;;;;;;;5.95;2.15;;;;;;;;;;6086261;29;21036;-73
2021/06/29 13:20:09;;;;;;;3.30;2.22;;;;;;;;;;6086278;29;20076;-73
2021/06/29 13:23:11;;;;;;;8.57;2.25;;;;;;;;;;6088664;29;20120;-73
2021/06/29 13:26:14;;;;;;;9.45;2.10;;;;;;;;;;6092404;29;20059;-73
2021/06/29 13:29:19;;;;;;;;;;;;;;;;;;6089326;29;20040;-75
2021/06/29 13:32:21;;;;;;;8.63;2.17;;;;;;;;;;6093459;29;20472;-74
2021/06/29 13:35:24;;;;;;;10.75;2.13;;;;;;;;;;6085756;29;20147;-75
2021/06/29 13:38:26;;;;;;;7.47;2.25;;;;;;;;;;6088430;29;20135;-73
2021/06/29 13:41:35;;;;;;;4.90;1.73;;;;;;;;;;6090248;29;20161;-74
2021/06/29 13:44:36;;;;;;;7.53;2.20;;;;;;;;;;6083546;29;20669;-73
2021/06/29 13:47:50;;;;;;;8.77;1.80;;;;;;;;;;6088392;29;20575;-75
2021/06/29 13:50:53;;;;;;;5.60;1.70;;;;;;;;;;6086056;29;20168;-75
2021/06/29 13:53:54;;;;;;;5.72;1.75;;;;;;;;;;6085289;29;20046;-72
2021/06/29 13:56:56;;;;;;;4.80;1.80;;;;;;;;;;6089313;29;20520;-73
2021/06/29 13:59:58;;;;;;;6.35;1.63;;;;;;;;;;6093615;29;20448;-73
2021/06/29 14:03:06;;;;;;;5.85;1.60;;;;;;;;;;6101341;29;20127;-73
2021/06/29 14:06:11;;;;;;;6.60;1.60;;;;;;;;;;6093507;29;20180;-69
2021/06/29 14:09:13;;;;;;;11.13;1.60;;;;;;;;;;6093114;29;20131;-75
2021/06/29 14:12:22;;;;;;;10.45;1.90;;;;;;;;;;6095052;29;20091;-76
2021/06/29 14:15:24;;;;;;;4.57;1.52;;;;;;;;;;6104269;29;20069;-75
2021/06/29 14:18:26;;;;;;;4.18;1.15;;;;;;;;;;6105608;29;20114;-77
2021/06/29 14:21:30;;;;;;;4.43;1.42;;;;;;;;;;6099126;29;20497;-77
2021/06/29 14:24:32;;;;;;;6.45;1.65;;;;;;;;;;6102963;29;20052;-75
2021/06/29 14:27:34;;;;;;;4.57;1.50;;;;;;;;;;6101629;29;20140;-76
2021/06/29 14:30:35;;;;;;;7.13;1.42;;;;;;;;;;6095261;29;20452;-76
2021/06/29 14:33:37;;;;;;;5.03;1.42;;;;;;;;;;6096918;29;20043;-75
2021/06/29 14:36:40;;;;;;;9.20;1.60;;;;;;;;;;6103025;29;20763;-77
2021/06/29 14:39:42;;;;;;;6.22;1.83;;;;;;;;;;6104109;29;20050;-75
2021/06/29 14:42:43;;;;;;;7.43;1.75;;;;;;;;;;6104382;29;20058;-75
2021/06/29 14:45:45;;;;;;;5.45;1.35;;;;;;;;;;6105758;29;20280;-74
2021/06/29 14:48:47;;;;;;;9.18;1.90;;;;;;;;;;6098483;29;20076;-75
2021/06/29 14:51:50;;;;;;;4.90;1.70;;;;;;;;;;6100016;29;20051;-77
2021/06/29 14:54:51;;;;;;;3.13;1.73;;;;;;;;;;6097952;29;20051;-74
2021/06/29 14:57:53;;;;;;;2.58;1.20;;;;;;;;;;6098469;29;20127;-74
2021/06/29 15:00:56;;;;;;;9.30;1.83;;;;;;;;;;6097076;29;20085;-74
2021/06/29 15:03:57;;;;;;;6.70;1.33;;;;;;;;;;6097493;29;20059;-73
2021/06/29 15:07:01;;;;;;;4.13;1.80;;;;;;;;;;6097285;29;20150;-75
2021/06/29 15:10:04;;;;;;;12.23;2.70;;;;;;;;;;6101668;29;20050;-72
2021/06/29 15:13:07;;;;;;;5.20;1.70;;;;;;;;;;6094163;29;20185;-74
2021/06/29 15:16:09;;;;;;;11.15;1.60;;;;;;;;;;6093794;29;20049;-76
2021/06/29 15:19:11;;;;;;;8.75;2.33;;;;;;;;;;6100580;29;20368;-74
2021/06/29 15:22:13;;;;;;;3.60;1.88;;;;;;;;;;6100090;29;20564;-74
2021/06/29 15:25:16;;;;;;;;;;;;;;;;;;6106161;29;20059;-74
2021/06/29 15:28:17;;;;;;;5.25;1.90;;;;;;;;;;6093005;29;19987;-74
2021/06/29 15:31:19;;;;;;;4.18;2.00;;;;;;;;;;6097199;29;20049;-73
2021/06/29 15:34:21;;;;;;;4.40;1.42;;;;;;;;;;6101199;29;20048;-73
2021/06/29 15:37:24;;;;;;;2.65;1.60;;;;;;;;;;6101814;29;20442;-75
2021/06/29 15:40:28;;;;;;;3.08;1.63;;;;;;;;;;6096070;29;20074;-75
2021/06/29 15:43:30;;;;;;;6.70;1.92;;;;;;;;;;6099452;29;20048;-77
2021/06/29 15:46:32;;;;;;;4.70;1.50;;;;;;;;;;6102586;29;20055;-79
2021/06/29 15:49:34;;;;;;;8.30;1.65;;;;;;;;;;6093007;29;20063;-73
2021/06/29 15:52:37;;;;;;;5.10;1.73;;;;;;;;;;6092424;29;20044;-72
2021/06/29 15:55:38;;;;;;;;;;;;;;;;;;6093760;29;20059;-76
2021/06/29 15:58:40;;;;;;;6.47;1.88;;;;;;;;;;6078074;29;19951;-74
2021/06/29 16:01:42;;;;;;;6.70;2.05;;;;;;;;;;6087552;29;20139;-73
2021/06/29 16:04:44;;;;;;;5.88;1.70;;;;;;;;;;6099840;29;20131;-75
2021/06/29 16:07:47;;;;;;;4.60;1.50;;;;;;;;;;6094190;29;20056;-75
2021/06/29 16:10:48;;;;;;;;;;;;;;;;;;6099253;29;20044;-74
2021/06/29 16:13:50;;;;;;;5.10;1.80;;;;;;;;;;6089738;29;19948;-74
2021/06/29 16:16:52;;;;;;;3.65;1.80;;;;;;;;;;6091972;29;20043;-74
2021/06/29 16:19:53;;;;;;;1.80;1.50;;;;;;;;;;6086890;29;20056;-74
2021/06/29 16:22:57;;;;;;;2.55;1.50;;;;;;;;;;6097320;29;20085;-74
2021/06/29 16:25:58;;;;;;;3.45;1.70;;;;;;;;;;6095283;29;20119;-74
2021/06/29 16:29:04;;;;;;;5.10;1.58;;;;;;;;;;6095884;29;20131;-73
2021/06/29 16:32:06;;;;;;;3.85;1.80;;;;;;;;;;6091636;29;20128;-77
2021/06/29 16:35:09;;;;;;;6.75;1.60;;;;;;;;;;6092496;29;20135;-74
2021/06/29 16:38:13;;;;;;;4.40;1.80;;;;;;;;;;6097796;29;20051;-75
2021/06/29 16:41:15;;;;;;;8.23;1.85;;;;;;;;;;6096059;29;20427;-74
2021/06/29 16:44:25;;;;;;;6.57;1.80;;;;;;;;;;6091043;29;20049;-76
2021/06/29 16:47:28;;;;;;;4.25;1.52;;;;;;;;;;6095656;29;20393;-76
2021/06/29 16:50:29;;;;;;;7.63;1.67;;;;;;;;;;6082297;29;20537;-79
2021/06/29 16:53:33;;;;;;;8.48;2.08;;;;;;;;;;6093341;29;20107;-75
2021/06/29 16:56:38;;;;;;;9.05;1.90;;;;;;;;;;6099390;29;20075;-80
2021/06/29 16:59:39;;;;;;;2.95;1.88;;;;;;;;;;6105832;29;20052;-75
2021/06/29 17:02:41;;;;;;;3.47;1.83;;;;;;;;;;6096685;29;20040;-74
2021/06/29 17:05:43;;;;;;;5.47;1.67;;;;;;;;;;6092562;29;21461;-75
2021/06/29 17:08:46;;;;;;;9.48;2.17;;;;;;;;;;6097010;29;20100;-75
2021/06/29 17:11:47;;;;;;;10.00;2.10;;;;;;;;;;6102182;29;20047;-75
2021/06/29 17:14:49;;;;;;;3.50;2.00;;;;;;;;;;6091937;29;20534;-75
2021/06/29 17:17:51;;;;;;;5.70;1.95;;;;;;;;;;6103587;29;20507;-72
2021/06/29 17:20:52;;;;;;;3.75;1.90;;;;;;;;;;6098848;29;20129;-75
2021/06/29 17:23:55;;;;;;;6.55;1.85;;;;;;;;;;6098318;29;20120;-73
2021/06/29 17:26:58;;;;;;;;;;;;;;;;;;6096581;29;20215;-74
2021/06/29 17:29:59;;;;;;;3.92;1.83;;;;;;;;;;6104402;29;19950;-72
2021/06/29 17:33:01;;;;;;;2.97;1.90;;;;;;;;;;6101460;29;20054;-75
2021/06/29 17:36:03;;;;;;;5.60;1.85;;;;;;;;;;6095158;29;20056;-76
2021/06/29 17:39:06;;;;;;;2.72;1.90;;;;;;;;;;6095599;29;20406;-79
2021/06/29 17:42:08;;;;;;;4.53;1.70;;;;;;;;;;6093862;29;20060;-73
2021/06/29 17:45:12;;;;;;;4.63;2.10;;;;;;;;;;6096515;29;20114;-72
2021/06/29 17:48:16;;;;;;;3.58;2.17;;;;;;;;;;6094996;29;20051;-73
2021/06/29 17:51:17;;;;;;;4.78;1.90;;;;;;;;;;6092278;29;20055;-72
2021/06/29 17:54:20;;;;;;;3.92;1.95;;;;;;;;;;6097780;29;20090;-73
2021/06/29 17:57:23;;;;;;;5.15;2.00;;;;;;;;;;6095874;29;20196;-74
2021/06/29 18:00:24;;;;;;;3.20;2.00;;;;;;;;;;6094256;29;20056;-72
2021/06/29 18:03:26;;;;;;;6.18;2.50;;;;;;;;;;6089155;29;20705;-71
2021/06/29 18:06:28;;;;;;;3.50;2.20;;;;;;;;;;6103130;29;20047;-71
2021/06/29 18:09:31;;;;;;;5.10;2.10;;;;;;;;;;6102058;29;20120;-73
2021/06/29 18:12:33;;;;;;;5.38;2.13;;;;;;;;;;6092043;29;20099;-72
2021/06/29 18:15:34;;;;;;;10.77;2.63;;;;;;;;;;6096039;29;20184;-70
2021/06/29 18:18:36;;;;;;;4.28;2.13;;;;;;;;;;6095330;29;20036;-69
2021/06/29 18:21:39;;;;;;;6.60;2.20;;;;;;;;;;6096955;29;20119;-72